sensor_id;sensor_type;location;lat;lon;timestamp;P1;durP1;ratioP1;P2;durP2;ratioP2
50281;SDS011;36176;51.506;10.272;2023-04-09T00:00:10;23.40;;;19.43;;
50281;SDS011;36176;51.506;10.272;2023-04-09T00:02:40;25.27;;;21.43;;
50281;SDS011;36176;51.506;10.272;2023-04-09T00:05:07;21.77;;;19.47;;
50281;SDS011;36176;51.506;10.272;2023-04-09T00:07:34;22.83;;;19.53;;
50281;SDS011;36176;51.506;10.272;2023-04-09T00:10:01;22.83;;;19.57;;
50281;SDS011;36176;51.506;10.272;2023-04-09T00:12:28;23.83;;;19.27;;
50281;SDS011;36176;51.506;10.272;2023-04-09T00:14:56;20.50;;;17.67;;
50281;SDS011;36176;51.506;10.272;2023-04-09T00:17:23;24.87;;;19.37;;
50281;SDS011;36176;51.506;10.272;2023-04-09T00:19:50;22.50;;;18.17;;
50281;SDS011;36176;51.506;10.272;2023-04-09T00:22:17;23.27;;;19.00;;
50281;SDS011;36176;51.506;10.272;2023-04-09T00:24:44;21.90;;;18.37;;
50281;SDS011;36176;51.506;10.272;2023-04-09T00:27:11;18.57;;;16.57;;
50281;SDS011;36176;51.506;10.272;2023-04-09T00:29:38;24.00;;;20.33;;
50281;SDS011;36176;51.506;10.272;2023-04-09T00:32:05;22.27;;;18.83;;
50281;SDS011;36176;51.506;10.272;2023-04-09T00:34:32;22.67;;;19.30;;
50281;SDS011;36176;51.506;10.272;2023-04-09T00:36:59;20.47;;;17.83;;
50281;SDS011;36176;51.506;10.272;2023-04-09T00:39:26;23.73;;;20.40;;
50281;SDS011;36176;51.506;10.272;2023-04-09T00:41:57;23.40;;;19.10;;
50281;SDS011;36176;51.506;10.272;2023-04-09T00:44:28;22.00;;;18.93;;
50281;SDS011;36176;51.506;10.272;2023-04-09T00:46:55;25.13;;;19.83;;
50281;SDS011;36176;51.506;10.272;2023-04-09T00:49:25;22.90;;;18.87;;
50281;SDS011;36176;51.506;10.272;2023-04-09T00:51:52;24.17;;;18.47;;
50281;SDS011;36176;51.506;10.272;2023-04-09T00:54:19;20.10;;;17.73;;
50281;SDS011;36176;51.506;10.272;2023-04-09T00:56:46;20.83;;;17.17;;
50281;SDS011;36176;51.506;10.272;2023-04-09T00:59:13;20.87;;;17.80;;
50281;SDS011;36176;51.506;10.272;2023-04-09T01:01:41;20.70;;;16.77;;
50281;SDS011;36176;51.506;10.272;2023-04-09T01:04:08;20.80;;;17.23;;
50281;SDS011;36176;51.506;10.272;2023-04-09T01:06:37;20.27;;;17.10;;
50281;SDS011;36176;51.506;10.272;2023-04-09T01:09:13;20.10;;;16.60;;
50281;SDS011;36176;51.506;10.272;2023-04-09T01:11:50;20.57;;;17.10;;
50281;SDS011;36176;51.506;10.272;2023-04-09T01:14:44;19.03;;;14.90;;
50281;SDS011;36176;51.506;10.272;2023-04-09T01:17:23;21.53;;;16.77;;
50281;SDS011;36176;51.506;10.272;2023-04-09T01:20:04;21.37;;;16.57;;
50281;SDS011;36176;51.506;10.272;2023-04-09T01:22:47;17.50;;;15.57;;
50281;SDS011;36176;51.506;10.272;2023-04-09T01:25:36;20.73;;;16.03;;
50281;SDS011;36176;51.506;10.272;2023-04-09T01:28:24;18.50;;;16.03;;
50281;SDS011;36176;51.506;10.272;2023-04-09T01:30:58;21.20;;;16.27;;
50281;SDS011;36176;51.506;10.272;2023-04-09T01:33:28;19.67;;;15.93;;
50281;SDS011;36176;51.506;10.272;2023-04-09T01:35:56;18.93;;;16.33;;
50281;SDS011;36176;51.506;10.272;2023-04-09T01:38:25;23.33;;;19.40;;
50281;SDS011;36176;51.506;10.272;2023-04-09T01:40:54;21.57;;;16.93;;
50281;SDS011;36176;51.506;10.272;2023-04-09T01:43:23;20.60;;;16.70;;
50281;SDS011;36176;51.506;10.272;2023-04-09T01:45:52;23.87;;;18.27;;
50281;SDS011;36176;51.506;10.272;2023-04-09T01:48:20;21.27;;;17.57;;
50281;SDS011;36176;51.506;10.272;2023-04-09T01:50:48;22.77;;;17.93;;
50281;SDS011;36176;51.506;10.272;2023-04-09T01:53:16;23.27;;;18.30;;
50281;SDS011;36176;51.506;10.272;2023-04-09T01:55:43;26.13;;;19.87;;
50281;SDS011;36176;51.506;10.272;2023-04-09T01:58:10;26.13;;;20.90;;
50281;SDS011;36176;51.506;10.272;2023-04-09T02:00:38;28.93;;;22.90;;
50281;SDS011;36176;51.506;10.272;2023-04-09T02:03:09;27.20;;;21.63;;
50281;SDS011;36176;51.506;10.272;2023-04-09T02:05:53;29.20;;;22.63;;
50281;SDS011;36176;51.506;10.272;2023-04-09T02:08:23;32.77;;;23.43;;
50281;SDS011;36176;51.506;10.272;2023-04-09T02:10:53;27.20;;;21.03;;
50281;SDS011;36176;51.506;10.272;2023-04-09T02:13:23;29.17;;;22.57;;
50281;SDS011;36176;51.506;10.272;2023-04-09T02:15:52;29.97;;;23.67;;
50281;SDS011;36176;51.506;10.272;2023-04-09T02:18:24;33.07;;;25.00;;
50281;SDS011;36176;51.506;10.272;2023-04-09T02:20:53;25.50;;;20.43;;
50281;SDS011;36176;51.506;10.272;2023-04-09T02:23:22;29.47;;;22.73;;
50281;SDS011;36176;51.506;10.272;2023-04-09T02:25:49;29.67;;;23.60;;
50281;SDS011;36176;51.506;10.272;2023-04-09T02:28:18;32.33;;;23.57;;
50281;SDS011;36176;51.506;10.272;2023-04-09T02:30:45;28.93;;;22.57;;
50281;SDS011;36176;51.506;10.272;2023-04-09T02:33:12;26.33;;;20.40;;
50281;SDS011;36176;51.506;10.272;2023-04-09T02:35:39;27.37;;;20.67;;
50281;SDS011;36176;51.506;10.272;2023-04-09T02:38:06;29.33;;;23.37;;
50281;SDS011;36176;51.506;10.272;2023-04-09T02:40:39;26.97;;;19.90;;
50281;SDS011;36176;51.506;10.272;2023-04-09T02:43:09;26.57;;;20.83;;
50281;SDS011;36176;51.506;10.272;2023-04-09T02:45:36;26.90;;;20.73;;
50281;SDS011;36176;51.506;10.272;2023-04-09T02:48:03;26.80;;;22.07;;
50281;SDS011;36176;51.506;10.272;2023-04-09T02:50:30;27.77;;;22.03;;
50281;SDS011;36176;51.506;10.272;2023-04-09T02:52:57;27.60;;;21.30;;
50281;SDS011;36176;51.506;10.272;2023-04-09T02:55:24;25.17;;;19.93;;
50281;SDS011;36176;51.506;10.272;2023-04-09T02:57:52;29.93;;;23.43;;
50281;SDS011;36176;51.506;10.272;2023-04-09T03:00:18;26.23;;;21.07;;
50281;SDS011;36176;51.506;10.272;2023-04-09T03:02:45;25.43;;;19.53;;
50281;SDS011;36176;51.506;10.272;2023-04-09T03:05:13;24.23;;;19.27;;
50281;SDS011;36176;51.506;10.272;2023-04-09T03:07:40;27.30;;;21.57;;
50281;SDS011;36176;51.506;10.272;2023-04-09T03:10:07;33.00;;;24.47;;
50281;SDS011;36176;51.506;10.272;2023-04-09T03:12:34;34.27;;;24.63;;
50281;SDS011;36176;51.506;10.272;2023-04-09T03:15:01;27.37;;;21.00;;
50281;SDS011;36176;51.506;10.272;2023-04-09T03:17:28;29.70;;;22.67;;
50281;SDS011;36176;51.506;10.272;2023-04-09T03:19:57;26.47;;;19.67;;
50281;SDS011;36176;51.506;10.272;2023-04-09T03:22:24;30.07;;;23.67;;
50281;SDS011;36176;51.506;10.272;2023-04-09T03:24:51;26.27;;;19.87;;
50281;SDS011;36176;51.506;10.272;2023-04-09T03:27:18;29.17;;;21.60;;
50281;SDS011;36176;51.506;10.272;2023-04-09T03:29:45;26.33;;;20.70;;
50281;SDS011;36176;51.506;10.272;2023-04-09T03:32:12;28.70;;;21.47;;
50281;SDS011;36176;51.506;10.272;2023-04-09T03:34:39;28.70;;;22.20;;
50281;SDS011;36176;51.506;10.272;2023-04-09T03:37:06;27.90;;;23.00;;
50281;SDS011;36176;51.506;10.272;2023-04-09T03:39:33;24.03;;;19.73;;
50281;SDS011;36176;51.506;10.272;2023-04-09T03:42:00;25.23;;;19.90;;
50281;SDS011;36176;51.506;10.272;2023-04-09T03:44:27;28.97;;;22.40;;
50281;SDS011;36176;51.506;10.272;2023-04-09T03:46:54;31.10;;;23.97;;
50281;SDS011;36176;51.506;10.272;2023-04-09T03:49:21;31.33;;;23.93;;
50281;SDS011;36176;51.506;10.272;2023-04-09T03:51:48;31.07;;;23.80;;
50281;SDS011;36176;51.506;10.272;2023-04-09T03:54:15;30.87;;;23.67;;
50281;SDS011;36176;51.506;10.272;2023-04-09T03:56:42;27.23;;;21.83;;
50281;SDS011;36176;51.506;10.272;2023-04-09T03:59:09;28.20;;;22.63;;
50281;SDS011;36176;51.506;10.272;2023-04-09T04:01:36;31.30;;;22.63;;
50281;SDS011;36176;51.506;10.272;2023-04-09T04:04:04;33.83;;;25.90;;
50281;SDS011;36176;51.506;10.272;2023-04-09T04:06:34;26.90;;;21.90;;
50281;SDS011;36176;51.506;10.272;2023-04-09T04:09:01;35.60;;;25.57;;
50281;SDS011;36176;51.506;10.272;2023-04-09T04:11:28;34.87;;;25.37;;
50281;SDS011;36176;51.506;10.272;2023-04-09T04:13:55;30.90;;;24.30;;
50281;SDS011;36176;51.506;10.272;2023-04-09T04:16:25;32.73;;;26.43;;
50281;SDS011;36176;51.506;10.272;2023-04-09T04:18:52;31.17;;;24.23;;
50281;SDS011;36176;51.506;10.272;2023-04-09T04:21:20;33.73;;;26.80;;
50281;SDS011;36176;51.506;10.272;2023-04-09T04:23:47;28.43;;;23.27;;
50281;SDS011;36176;51.506;10.272;2023-04-09T04:26:14;28.53;;;23.30;;
50281;SDS011;36176;51.506;10.272;2023-04-09T04:28:41;29.23;;;22.97;;
50281;SDS011;36176;51.506;10.272;2023-04-09T04:31:08;30.27;;;23.43;;
50281;SDS011;36176;51.506;10.272;2023-04-09T04:33:39;27.10;;;21.40;;
50281;SDS011;36176;51.506;10.272;2023-04-09T04:36:08;28.17;;;22.37;;
50281;SDS011;36176;51.506;10.272;2023-04-09T04:38:36;29.80;;;24.00;;
50281;SDS011;36176;51.506;10.272;2023-04-09T04:41:04;28.70;;;23.07;;
50281;SDS011;36176;51.506;10.272;2023-04-09T04:43:31;32.37;;;24.37;;
50281;SDS011;36176;51.506;10.272;2023-04-09T04:45:59;29.67;;;24.13;;
50281;SDS011;36176;51.506;10.272;2023-04-09T04:48:27;32.87;;;25.17;;
50281;SDS011;36176;51.506;10.272;2023-04-09T04:50:54;27.87;;;22.03;;
50281;SDS011;36176;51.506;10.272;2023-04-09T04:53:26;30.60;;;23.30;;
50281;SDS011;36176;51.506;10.272;2023-04-09T04:55:53;31.40;;;24.07;;
50281;SDS011;36176;51.506;10.272;2023-04-09T04:58:20;28.83;;;24.60;;
50281;SDS011;36176;51.506;10.272;2023-04-09T05:00:47;29.60;;;23.90;;
50281;SDS011;36176;51.506;10.272;2023-04-09T05:03:16;34.13;;;26.30;;
50281;SDS011;36176;51.506;10.272;2023-04-09T05:05:43;27.73;;;21.33;;
50281;SDS011;36176;51.506;10.272;2023-04-09T05:08:11;31.03;;;23.57;;
50281;SDS011;36176;51.506;10.272;2023-04-09T05:10:41;30.03;;;23.27;;
50281;SDS011;36176;51.506;10.272;2023-04-09T05:13:09;28.17;;;22.03;;
50281;SDS011;36176;51.506;10.272;2023-04-09T05:15:39;30.33;;;22.63;;
50281;SDS011;36176;51.506;10.272;2023-04-09T05:18:07;29.20;;;23.07;;
50281;SDS011;36176;51.506;10.272;2023-04-09T05:20:34;29.97;;;22.27;;
50281;SDS011;36176;51.506;10.272;2023-04-09T05:23:01;29.30;;;23.43;;
50281;SDS011;36176;51.506;10.272;2023-04-09T05:25:28;28.40;;;22.30;;
50281;SDS011;36176;51.506;10.272;2023-04-09T05:27:55;32.27;;;25.00;;
50281;SDS011;36176;51.506;10.272;2023-04-09T05:30:22;31.00;;;24.03;;
50281;SDS011;36176;51.506;10.272;2023-04-09T05:32:49;26.90;;;21.43;;
50281;SDS011;36176;51.506;10.272;2023-04-09T05:35:16;25.40;;;20.23;;
50281;SDS011;36176;51.506;10.272;2023-04-09T05:37:43;26.37;;;21.80;;
50281;SDS011;36176;51.506;10.272;2023-04-09T05:40:10;32.33;;;24.17;;
50281;SDS011;36176;51.506;10.272;2023-04-09T05:42:37;32.40;;;25.07;;
50281;SDS011;36176;51.506;10.272;2023-04-09T05:45:08;30.50;;;23.30;;
50281;SDS011;36176;51.506;10.272;2023-04-09T05:47:35;29.63;;;24.80;;
50281;SDS011;36176;51.506;10.272;2023-04-09T05:50:02;30.70;;;24.30;;
50281;SDS011;36176;51.506;10.272;2023-04-09T05:52:30;30.57;;;25.17;;
50281;SDS011;36176;51.506;10.272;2023-04-09T05:54:57;29.43;;;23.27;;
50281;SDS011;36176;51.506;10.272;2023-04-09T05:57:24;29.37;;;23.97;;
50281;SDS011;36176;51.506;10.272;2023-04-09T05:59:51;30.33;;;24.70;;
50281;SDS011;36176;51.506;10.272;2023-04-09T06:02:18;28.70;;;22.97;;
50281;SDS011;36176;51.506;10.272;2023-04-09T06:04:45;27.30;;;22.00;;
50281;SDS011;36176;51.506;10.272;2023-04-09T06:07:12;34.50;;;26.60;;
50281;SDS011;36176;51.506;10.272;2023-04-09T06:09:39;34.67;;;25.00;;
50281;SDS011;36176;51.506;10.272;2023-04-09T06:12:06;32.70;;;26.30;;
50281;SDS011;36176;51.506;10.272;2023-04-09T06:14:33;34.97;;;26.80;;
50281;SDS011;36176;51.506;10.272;2023-04-09T06:17:00;31.77;;;24.73;;
50281;SDS011;36176;51.506;10.272;2023-04-09T06:19:27;33.10;;;24.37;;
50281;SDS011;36176;51.506;10.272;2023-04-09T06:21:54;33.07;;;24.80;;
50281;SDS011;36176;51.506;10.272;2023-04-09T06:24:21;30.73;;;24.00;;
50281;SDS011;36176;51.506;10.272;2023-04-09T06:26:48;31.57;;;24.87;;
50281;SDS011;36176;51.506;10.272;2023-04-09T06:29:15;27.33;;;23.00;;
50281;SDS011;36176;51.506;10.272;2023-04-09T06:31:42;28.13;;;23.50;;
50281;SDS011;36176;51.506;10.272;2023-04-09T06:34:09;27.37;;;22.30;;
50281;SDS011;36176;51.506;10.272;2023-04-09T06:36:36;30.13;;;23.93;;
50281;SDS011;36176;51.506;10.272;2023-04-09T06:39:05;26.60;;;21.97;;
50281;SDS011;36176;51.506;10.272;2023-04-09T06:41:33;28.87;;;23.50;;
50281;SDS011;36176;51.506;10.272;2023-04-09T06:44:00;29.47;;;22.77;;
50281;SDS011;36176;51.506;10.272;2023-04-09T06:46:27;29.07;;;23.13;;
50281;SDS011;36176;51.506;10.272;2023-04-09T06:48:57;29.40;;;24.17;;
50281;SDS011;36176;51.506;10.272;2023-04-09T06:51:25;29.57;;;24.60;;
50281;SDS011;36176;51.506;10.272;2023-04-09T06:53:52;30.23;;;23.97;;
50281;SDS011;36176;51.506;10.272;2023-04-09T06:56:20;28.13;;;23.30;;
50281;SDS011;36176;51.506;10.272;2023-04-09T06:58:47;31.17;;;24.73;;
50281;SDS011;36176;51.506;10.272;2023-04-09T07:01:14;27.33;;;22.70;;
50281;SDS011;36176;51.506;10.272;2023-04-09T07:03:43;33.67;;;26.83;;
50281;SDS011;36176;51.506;10.272;2023-04-09T07:06:10;29.00;;;23.93;;
50281;SDS011;36176;51.506;10.272;2023-04-09T07:08:37;28.10;;;23.37;;
50281;SDS011;36176;51.506;10.272;2023-04-09T07:11:04;30.27;;;23.53;;
50281;SDS011;36176;51.506;10.272;2023-04-09T07:13:31;30.70;;;25.40;;
50281;SDS011;36176;51.506;10.272;2023-04-09T07:15:58;31.40;;;25.07;;
50281;SDS011;36176;51.506;10.272;2023-04-09T07:18:25;33.20;;;27.40;;
50281;SDS011;36176;51.506;10.272;2023-04-09T07:20:52;27.87;;;24.53;;
50281;SDS011;36176;51.506;10.272;2023-04-09T07:23:21;29.37;;;25.40;;
50281;SDS011;36176;51.506;10.272;2023-04-09T07:25:48;25.67;;;22.53;;
50281;SDS011;36176;51.506;10.272;2023-04-09T07:28:15;27.03;;;22.53;;
50281;SDS011;36176;51.506;10.272;2023-04-09T07:30:42;28.20;;;23.70;;
50281;SDS011;36176;51.506;10.272;2023-04-09T07:33:09;24.97;;;21.20;;
50281;SDS011;36176;51.506;10.272;2023-04-09T07:35:36;26.60;;;21.67;;
50281;SDS011;36176;51.506;10.272;2023-04-09T07:38:03;23.43;;;20.83;;
50281;SDS011;36176;51.506;10.272;2023-04-09T07:40:30;24.73;;;20.67;;
50281;SDS011;36176;51.506;10.272;2023-04-09T07:43:00;26.50;;;20.67;;
50281;SDS011;36176;51.506;10.272;2023-04-09T07:45:27;23.23;;;20.47;;
50281;SDS011;36176;51.506;10.272;2023-04-09T07:47:54;23.97;;;20.43;;
50281;SDS011;36176;51.506;10.272;2023-04-09T07:50:21;23.40;;;19.83;;
50281;SDS011;36176;51.506;10.272;2023-04-09T07:52:48;21.53;;;18.93;;
50281;SDS011;36176;51.506;10.272;2023-04-09T07:55:15;21.90;;;19.60;;
50281;SDS011;36176;51.506;10.272;2023-04-09T07:57:44;23.43;;;20.60;;
50281;SDS011;36176;51.506;10.272;2023-04-09T08:00:11;21.37;;;18.17;;
50281;SDS011;36176;51.506;10.272;2023-04-09T08:02:38;22.70;;;18.60;;
50281;SDS011;36176;51.506;10.272;2023-04-09T08:05:06;26.30;;;23.37;;
50281;SDS011;36176;51.506;10.272;2023-04-09T08:07:33;25.50;;;21.10;;
50281;SDS011;36176;51.506;10.272;2023-04-09T08:10:00;19.87;;;17.67;;
50281;SDS011;36176;51.506;10.272;2023-04-09T08:12:27;20.60;;;18.30;;
50281;SDS011;36176;51.506;10.272;2023-04-09T08:14:54;21.33;;;18.97;;
50281;SDS011;36176;51.506;10.272;2023-04-09T08:17:21;38.63;;;34.97;;
50281;SDS011;36176;51.506;10.272;2023-04-09T08:19:48;25.30;;;22.53;;
50281;SDS011;36176;51.506;10.272;2023-04-09T08:22:15;23.17;;;20.30;;
50281;SDS011;36176;51.506;10.272;2023-04-09T08:24:42;24.53;;;21.73;;
50281;SDS011;36176;51.506;10.272;2023-04-09T08:27:09;27.17;;;22.30;;
50281;SDS011;36176;51.506;10.272;2023-04-09T08:29:37;30.03;;;26.93;;
50281;SDS011;36176;51.506;10.272;2023-04-09T08:32:06;32.50;;;29.27;;
50281;SDS011;36176;51.506;10.272;2023-04-09T08:34:33;37.27;;;33.73;;
50281;SDS011;36176;51.506;10.272;2023-04-09T08:37:00;24.27;;;21.67;;
50281;SDS011;36176;51.506;10.272;2023-04-09T08:39:28;23.80;;;21.20;;
50281;SDS011;36176;51.506;10.272;2023-04-09T08:41:56;24.30;;;21.70;;
50281;SDS011;36176;51.506;10.272;2023-04-09T08:44:27;25.53;;;22.70;;
50281;SDS011;36176;51.506;10.272;2023-04-09T08:46:55;25.00;;;21.93;;
50281;SDS011;36176;51.506;10.272;2023-04-09T08:49:25;28.17;;;25.20;;
50281;SDS011;36176;51.506;10.272;2023-04-09T08:51:52;28.40;;;25.47;;
50281;SDS011;36176;51.506;10.272;2023-04-09T08:54:19;24.87;;;21.67;;
50281;SDS011;36176;51.506;10.272;2023-04-09T08:56:46;23.03;;;20.57;;
50281;SDS011;36176;51.506;10.272;2023-04-09T08:59:16;23.30;;;20.90;;
50281;SDS011;36176;51.506;10.272;2023-04-09T09:01:47;24.07;;;21.53;;
50281;SDS011;36176;51.506;10.272;2023-04-09T09:04:20;23.63;;;20.90;;
50281;SDS011;36176;51.506;10.272;2023-04-09T09:06:47;22.27;;;19.87;;
50281;SDS011;36176;51.506;10.272;2023-04-09T09:09:14;26.83;;;24.10;;
50281;SDS011;36176;51.506;10.272;2023-04-09T09:11:43;23.60;;;21.07;;
50281;SDS011;36176;51.506;10.272;2023-04-09T09:14:12;25.47;;;22.87;;
50281;SDS011;36176;51.506;10.272;2023-04-09T09:16:42;22.73;;;20.37;;
50281;SDS011;36176;51.506;10.272;2023-04-09T09:19:31;22.37;;;20.00;;
50281;SDS011;36176;51.506;10.272;2023-04-09T09:22:03;20.33;;;18.23;;
50281;SDS011;36176;51.506;10.272;2023-04-09T09:24:31;21.33;;;19.03;;
50281;SDS011;36176;51.506;10.272;2023-04-09T09:27:00;21.77;;;19.57;;
50281;SDS011;36176;51.506;10.272;2023-04-09T09:29:28;19.53;;;17.57;;
50281;SDS011;36176;51.506;10.272;2023-04-09T09:31:55;19.80;;;17.80;;
50281;SDS011;36176;51.506;10.272;2023-04-09T09:34:23;20.97;;;18.77;;
50281;SDS011;36176;51.506;10.272;2023-04-09T09:36:51;21.13;;;18.60;;
50281;SDS011;36176;51.506;10.272;2023-04-09T09:39:18;19.33;;;17.30;;
50281;SDS011;36176;51.506;10.272;2023-04-09T09:41:45;18.97;;;17.07;;
50281;SDS011;36176;51.506;10.272;2023-04-09T09:44:29;20.47;;;18.40;;
50281;SDS011;36176;51.506;10.272;2023-04-09T09:46:58;25.80;;;23.30;;
50281;SDS011;36176;51.506;10.272;2023-04-09T09:49:26;19.63;;;17.63;;
50281;SDS011;36176;51.506;10.272;2023-04-09T09:51:53;20.93;;;18.73;;
50281;SDS011;36176;51.506;10.272;2023-04-09T09:54:24;19.93;;;17.83;;
50281;SDS011;36176;51.506;10.272;2023-04-09T09:56:57;19.80;;;17.70;;
50281;SDS011;36176;51.506;10.272;2023-04-09T09:59:31;19.27;;;16.67;;
50281;SDS011;36176;51.506;10.272;2023-04-09T10:02:08;17.97;;;15.20;;
50281;SDS011;36176;51.506;10.272;2023-04-09T10:04:45;17.07;;;15.27;;
50281;SDS011;36176;51.506;10.272;2023-04-09T10:07:15;18.27;;;16.10;;
50281;SDS011;36176;51.506;10.272;2023-04-09T10:09:44;19.17;;;17.17;;
50281;SDS011;36176;51.506;10.272;2023-04-09T10:12:14;16.87;;;15.07;;
50281;SDS011;36176;51.506;10.272;2023-04-09T10:24:39;10.00;;;9.00;;
50281;SDS011;36176;51.506;10.272;2023-04-09T10:27:10;16.70;;;14.90;;
50281;SDS011;36176;51.506;10.272;2023-04-09T10:29:45;16.13;;;14.47;;
50281;SDS011;36176;51.506;10.272;2023-04-09T10:32:18;16.73;;;15.03;;
50281;SDS011;36176;51.506;10.272;2023-04-09T10:34:47;16.47;;;14.77;;
50281;SDS011;36176;51.506;10.272;2023-04-09T10:37:26;16.47;;;14.83;;
50281;SDS011;36176;51.506;10.272;2023-04-09T10:39:54;16.23;;;14.53;;
50281;SDS011;36176;51.506;10.272;2023-04-09T10:42:23;15.93;;;14.27;;
50281;SDS011;36176;51.506;10.272;2023-04-09T10:45:05;15.77;;;14.17;;
50281;SDS011;36176;51.506;10.272;2023-04-09T10:47:38;16.57;;;14.87;;
50281;SDS011;36176;51.506;10.272;2023-04-09T10:50:25;15.87;;;14.27;;
50281;SDS011;36176;51.506;10.272;2023-04-09T10:52:58;16.87;;;15.27;;
50281;SDS011;36176;51.506;10.272;2023-04-09T10:55:38;15.77;;;14.23;;
50281;SDS011;36176;51.506;10.272;2023-04-09T10:58:09;16.37;;;14.77;;
50281;SDS011;36176;51.506;10.272;2023-04-09T11:00:40;16.23;;;14.53;;
50281;SDS011;36176;51.506;10.272;2023-04-09T11:03:26;17.93;;;16.13;;
50281;SDS011;36176;51.506;10.272;2023-04-09T11:05:57;15.67;;;14.10;;
50281;SDS011;36176;51.506;10.272;2023-04-09T11:08:27;14.07;;;12.67;;
50281;SDS011;36176;51.506;10.272;2023-04-09T11:10:56;15.20;;;13.67;;
50281;SDS011;36176;51.506;10.272;2023-04-09T15:24:56;6.20;;;5.60;;
50281;SDS011;36176;51.506;10.272;2023-04-09T15:27:23;10.40;;;9.40;;
50281;SDS011;36176;51.506;10.272;2023-04-09T15:29:50;10.43;;;9.53;;
50281;SDS011;36176;51.506;10.272;2023-04-09T15:32:17;9.70;;;8.80;;
50281;SDS011;36176;51.506;10.272;2023-04-09T15:34:45;9.63;;;8.73;;
50281;SDS011;36176;51.506;10.272;2023-04-09T15:37:12;10.03;;;9.13;;
50281;SDS011;36176;51.506;10.272;2023-04-09T15:39:38;10.33;;;9.33;;
50281;SDS011;36176;51.506;10.272;2023-04-09T15:42:06;10.33;;;9.17;;
50281;SDS011;36176;51.506;10.272;2023-04-09T15:44:36;10.87;;;9.87;;
50281;SDS011;36176;51.506;10.272;2023-04-09T15:47:04;9.50;;;8.60;;
50281;SDS011;36176;51.506;10.272;2023-04-09T15:49:33;10.43;;;9.53;;
50281;SDS011;36176;51.506;10.272;2023-04-09T15:52:00;10.10;;;9.10;;
50281;SDS011;36176;51.506;10.272;2023-04-09T15:54:27;9.10;;;8.30;;
50281;SDS011;36176;51.506;10.272;2023-04-09T15:56:54;9.27;;;8.37;;
50281;SDS011;36176;51.506;10.272;2023-04-09T15:59:21;8.67;;;7.87;;
50281;SDS011;36176;51.506;10.272;2023-04-09T16:01:48;9.07;;;8.27;;
50281;SDS011;36176;51.506;10.272;2023-04-09T16:04:15;9.10;;;8.30;;
50281;SDS011;36176;51.506;10.272;2023-04-09T16:06:42;9.20;;;8.40;;
50281;SDS011;36176;51.506;10.272;2023-04-09T16:09:09;9.07;;;8.17;;
50281;SDS011;36176;51.506;10.272;2023-04-09T16:11:36;9.83;;;8.93;;
50281;SDS011;36176;51.506;10.272;2023-04-09T16:14:03;9.23;;;8.37;;
50281;SDS011;36176;51.506;10.272;2023-04-09T16:16:30;8.47;;;7.77;;
50281;SDS011;36176;51.506;10.272;2023-04-09T16:18:57;8.43;;;7.73;;
50281;SDS011;36176;51.506;10.272;2023-04-09T16:21:26;8.63;;;7.83;;
50281;SDS011;36176;51.506;10.272;2023-04-09T16:23:53;8.80;;;8.00;;
50281;SDS011;36176;51.506;10.272;2023-04-09T16:26:21;11.40;;;10.50;;
50281;SDS011;36176;51.506;10.272;2023-04-09T16:28:48;8.83;;;8.03;;
50281;SDS011;36176;51.506;10.272;2023-04-09T16:31:15;11.80;;;10.80;;
50281;SDS011;36176;51.506;10.272;2023-04-09T16:33:42;8.30;;;7.50;;
50281;SDS011;36176;51.506;10.272;2023-04-09T16:36:09;8.73;;;7.93;;
50281;SDS011;36176;51.506;10.272;2023-04-09T16:38:36;12.53;;;11.50;;
50281;SDS011;36176;51.506;10.272;2023-04-09T16:41:03;8.97;;;8.17;;
50281;SDS011;36176;51.506;10.272;2023-04-09T16:43:30;8.50;;;7.73;;
50281;SDS011;36176;51.506;10.272;2023-04-09T16:45:57;9.87;;;8.73;;
50281;SDS011;36176;51.506;10.272;2023-04-09T16:48:24;9.60;;;8.70;;
50281;SDS011;36176;51.506;10.272;2023-04-09T16:50:51;8.47;;;7.77;;
50281;SDS011;36176;51.506;10.272;2023-04-09T16:53:18;8.37;;;7.67;;
50281;SDS011;36176;51.506;10.272;2023-04-09T16:55:45;8.50;;;7.70;;
50281;SDS011;36176;51.506;10.272;2023-04-09T16:58:12;8.83;;;7.90;;
50281;SDS011;36176;51.506;10.272;2023-04-09T17:00:39;10.53;;;9.57;;
50281;SDS011;36176;51.506;10.272;2023-04-09T17:03:06;15.13;;;13.83;;
50281;SDS011;36176;51.506;10.272;2023-04-09T17:05:33;11.73;;;10.47;;
50281;SDS011;36176;51.506;10.272;2023-04-09T17:08:00;11.30;;;10.20;;
50281;SDS011;36176;51.506;10.272;2023-04-09T17:10:27;10.57;;;9.50;;
50281;SDS011;36176;51.506;10.272;2023-04-09T17:12:54;12.50;;;11.30;;
50281;SDS011;36176;51.506;10.272;2023-04-09T17:15:22;11.50;;;10.40;;
50281;SDS011;36176;51.506;10.272;2023-04-09T17:17:50;10.93;;;9.93;;
50281;SDS011;36176;51.506;10.272;2023-04-09T17:20:19;10.80;;;9.70;;
50281;SDS011;36176;51.506;10.272;2023-04-09T17:22:47;11.07;;;10.07;;
50281;SDS011;36176;51.506;10.272;2023-04-09T17:25:14;10.90;;;9.80;;
50281;SDS011;36176;51.506;10.272;2023-04-09T17:27:45;10.57;;;9.47;;
50281;SDS011;36176;51.506;10.272;2023-04-09T17:30:12;10.30;;;9.30;;
50281;SDS011;36176;51.506;10.272;2023-04-09T17:32:40;9.33;;;8.43;;
50281;SDS011;36176;51.506;10.272;2023-04-09T17:35:07;10.20;;;9.30;;
50281;SDS011;36176;51.506;10.272;2023-04-09T17:37:35;10.07;;;9.00;;
50281;SDS011;36176;51.506;10.272;2023-04-09T17:40:03;10.60;;;9.60;;
50281;SDS011;36176;51.506;10.272;2023-04-09T17:42:30;10.53;;;9.53;;
50281;SDS011;36176;51.506;10.272;2023-04-09T17:44:57;10.50;;;9.50;;
50281;SDS011;36176;51.506;10.272;2023-04-09T17:47:24;10.20;;;9.23;;
50281;SDS011;36176;51.506;10.272;2023-04-09T17:49:52;10.20;;;9.20;;
50281;SDS011;36176;51.506;10.272;2023-04-09T17:52:19;9.87;;;8.97;;
50281;SDS011;36176;51.506;10.272;2023-04-09T17:54:46;9.37;;;8.47;;
50281;SDS011;36176;51.506;10.272;2023-04-09T17:57:13;9.13;;;8.33;;
50281;SDS011;36176;51.506;10.272;2023-04-09T17:59:41;9.60;;;8.70;;
50281;SDS011;36176;51.506;10.272;2023-04-09T18:02:08;10.57;;;9.47;;
50281;SDS011;36176;51.506;10.272;2023-04-09T18:04:36;9.90;;;8.90;;
50281;SDS011;36176;51.506;10.272;2023-04-09T18:07:03;10.93;;;9.93;;
50281;SDS011;36176;51.506;10.272;2023-04-09T18:09:30;10.87;;;9.77;;
50281;SDS011;36176;51.506;10.272;2023-04-09T18:11:57;11.10;;;10.00;;
50281;SDS011;36176;51.506;10.272;2023-04-09T18:14:27;10.10;;;9.20;;
50281;SDS011;36176;51.506;10.272;2023-04-09T18:16:56;11.03;;;10.03;;
50281;SDS011;36176;51.506;10.272;2023-04-09T18:19:24;11.27;;;10.27;;
50281;SDS011;36176;51.506;10.272;2023-04-09T18:21:51;12.80;;;10.53;;
50281;SDS011;36176;51.506;10.272;2023-04-09T18:24:18;11.37;;;10.30;;
50281;SDS011;36176;51.506;10.272;2023-04-09T18:26:45;11.47;;;10.33;;
50281;SDS011;36176;51.506;10.272;2023-04-09T18:29:13;12.47;;;11.27;;
50281;SDS011;36176;51.506;10.272;2023-04-09T18:31:40;13.80;;;12.33;;
50281;SDS011;36176;51.506;10.272;2023-04-09T18:34:07;14.33;;;12.93;;
50281;SDS011;36176;51.506;10.272;2023-04-09T18:36:34;13.93;;;12.43;;
50281;SDS011;36176;51.506;10.272;2023-04-09T18:39:01;14.33;;;12.93;;
50281;SDS011;36176;51.506;10.272;2023-04-09T18:41:30;17.20;;;15.50;;